PWSweather.com
Personal Weather Stations
Station Observations
UXOLA
Alcoy, AlcoyES

AlcoyAlcoyES

Lat: 38.70299, Lon: -0.48184

Elevation: 1935

Station Type: PCE FWS-20,

http://www.fiestasalcoy.xyz

High Low Average
Temperature 90.7°F32.6°C 65.1°F18.4°C 79.0°F26.1°C
Dew Point 60.1°F15.6°C 36.8°F2.7°C 49.0°F9.4°C
Winds 9.8 mph 15.8 kmh Calm Calm 3.0 mph SSE4.8 kmh SSE
Wind Gusts 14.5 mph23.3 kmh 0.7 mph1.1 kmh 6.0 mph9.7 kmh
Humidity 53% 22% 36%
Pressure 29.91 in1012.9 mb 29.86 in1011.2 mb -
Precipitation 0.00 in0.0 mm - -
Hour Temp Dew Point Humidity Winds Wind Gusts Pressure Precip Precip Rate Daily Precip Total
12:00 AM 74.1°F23.4°C 39.0°F3.9°C 28% Calm Calm 1.6 mph2.6 kmh 29.87 in1011.5 mb 0.00 in0.0 mm 0.00 in0.0 mm 0.00 in0.0 mm
12:15 AM 73.6°F23.1°C 38.5°F3.6°C 28% Calm Calm 1.6 mph2.6 kmh 29.88 in1011.9 mb 0.00 in0.0 mm 0.00 in0.0 mm 0.00 in0.0 mm
12:30 AM 73.0°F22.8°C 39.8°F4.3°C 30% 0.7 mph SE1.1 kmh SE 2.2 mph3.5 kmh 29.87 in1011.5 mb 0.00 in0.0 mm 0.00 in0.0 mm 0.00 in0.0 mm
12:45 AM 72.7°F22.6°C 39.5°F4.2°C 30% 0.7 mph NE1.1 kmh NE 1.6 mph2.6 kmh 29.87 in1011.5 mb 0.00 in0.0 mm 0.00 in0.0 mm 0.00 in0.0 mm
01:00 AM 72.1°F22.3°C 39.0°F3.9°C 30% Calm Calm 1.6 mph2.6 kmh 29.88 in1011.9 mb 0.00 in0.0 mm 0.00 in0.0 mm 0.00 in0.0 mm
01:15 AM 71.4°F21.9°C 37.5°F3.1°C 29% Calm Calm 1.6 mph2.6 kmh 29.87 in1011.5 mb 0.00 in0.0 mm 0.00 in0.0 mm 0.00 in0.0 mm
01:30 AM 70.9°F21.6°C 38.8°F3.8°C 31% Calm Calm 1.6 mph2.6 kmh 29.87 in1011.5 mb 0.00 in0.0 mm 0.00 in0.0 mm 0.00 in0.0 mm
01:45 AM 70.2°F21.2°C 39.0°F3.9°C 32% 0.7 mph SE1.1 kmh SE 1.6 mph2.6 kmh 29.88 in1011.9 mb 0.00 in0.0 mm 0.00 in0.0 mm 0.00 in0.0 mm
02:00 AM 69.4°F20.8°C 38.3°F3.5°C 32% 0.7 mph SE1.1 kmh SE 1.6 mph2.6 kmh 29.87 in1011.5 mb 0.00 in0.0 mm 0.00 in0.0 mm 0.00 in0.0 mm
02:15 AM 69.3°F20.7°C 39.0°F3.9°C 33% 0.7 mph ENE1.1 kmh ENE 1.6 mph2.6 kmh 29.87 in1011.5 mb 0.00 in0.0 mm 0.00 in0.0 mm 0.00 in0.0 mm
02:30 AM 68.9°F20.5°C 37.9°F3.3°C 32% Calm Calm 1.6 mph2.6 kmh 29.87 in1011.5 mb 0.00 in0.0 mm 0.00 in0.0 mm 0.00 in0.0 mm
02:45 AM 68.7°F20.4°C 38.5°F3.6°C 33% Calm Calm 2.2 mph3.5 kmh 29.87 in1011.5 mb 0.00 in0.0 mm 0.00 in0.0 mm 0.00 in0.0 mm
03:00 AM 68.4°F20.2°C 38.2°F3.4°C 33% 1.6 mph SW2.6 kmh SW 2.2 mph3.5 kmh 29.87 in1011.5 mb 0.00 in0.0 mm 0.00 in0.0 mm 0.00 in0.0 mm
03:15 AM 68.0°F20.0°C 37.8°F3.2°C 33% Calm Calm 1.6 mph2.6 kmh 29.86 in1011.2 mb 0.00 in0.0 mm 0.00 in0.0 mm 0.00 in0.0 mm
03:30 AM 68.0°F20.0°C 37.8°F3.2°C 33% 1.6 mph WNW2.6 kmh WNW 2.2 mph3.5 kmh 29.86 in1011.2 mb 0.00 in0.0 mm 0.00 in0.0 mm 0.00 in0.0 mm
03:45 AM 67.5°F19.7°C 37.4°F3.0°C 33% 0.7 mph S1.1 kmh S 1.6 mph2.6 kmh 29.86 in1011.2 mb 0.00 in0.0 mm 0.00 in0.0 mm 0.00 in0.0 mm
04:00 AM 66.9°F19.4°C 37.7°F3.2°C 34% Calm Calm 1.6 mph2.6 kmh 29.86 in1011.2 mb 0.00 in0.0 mm 0.00 in0.0 mm 0.00 in0.0 mm
04:15 AM 66.6°F19.2°C 38.1°F3.4°C 35% Calm Calm 1.6 mph2.6 kmh 29.86 in1011.2 mb 0.00 in0.0 mm 0.00 in0.0 mm 0.00 in0.0 mm
04:30 AM 66.6°F19.2°C 37.3°F2.9°C 34% Calm Calm 1.6 mph2.6 kmh 29.86 in1011.2 mb 0.00 in0.0 mm 0.00 in0.0 mm 0.00 in0.0 mm
04:45 AM 66.2°F19.0°C 37.8°F3.2°C 35% Calm Calm 1.6 mph2.6 kmh 29.86 in1011.2 mb 0.00 in0.0 mm 0.00 in0.0 mm 0.00 in0.0 mm
05:00 AM 66.0°F18.9°C 37.6°F3.1°C 35% Calm Calm 0.7 mph1.1 kmh 29.87 in1011.5 mb 0.00 in0.0 mm 0.00 in0.0 mm 0.00 in0.0 mm
05:15 AM 66.0°F18.9°C 37.6°F3.1°C 35% Calm Calm 1.6 mph2.6 kmh 29.86 in1011.2 mb 0.00 in0.0 mm 0.00 in0.0 mm 0.00 in0.0 mm
05:30 AM 65.8°F18.8°C 37.4°F3.0°C 35% 0.7 mph WNW1.1 kmh WNW 1.6 mph2.6 kmh 29.87 in1011.5 mb 0.00 in0.0 mm 0.00 in0.0 mm 0.00 in0.0 mm
05:45 AM 65.5°F18.6°C 37.8°F3.2°C 36% Calm Calm 1.6 mph2.6 kmh 29.86 in1011.2 mb 0.00 in0.0 mm 0.00 in0.0 mm 0.00 in0.0 mm
06:00 AM 65.3°F18.5°C 37.0°F2.8°C 35% 0.7 mph WSW1.1 kmh WSW 1.6 mph2.6 kmh 29.88 in1011.9 mb 0.00 in0.0 mm 0.00 in0.0 mm 0.00 in0.0 mm
06:15 AM 65.1°F18.4°C 36.8°F2.7°C 35% Calm Calm 1.6 mph2.6 kmh 29.88 in1011.9 mb 0.00 in0.0 mm 0.00 in0.0 mm 0.00 in0.0 mm
06:30 AM 65.3°F18.5°C 37.7°F3.2°C 36% 0.7 mph SE1.1 kmh SE 1.6 mph2.6 kmh 29.89 in1012.2 mb 0.00 in0.0 mm 0.00 in0.0 mm 0.00 in0.0 mm
06:45 AM 65.7°F18.7°C 38.0°F3.3°C 36% Calm Calm 1.6 mph2.6 kmh 29.89 in1012.2 mb 0.00 in0.0 mm 0.00 in0.0 mm 0.00 in0.0 mm
07:00 AM 66.6°F19.2°C 38.1°F3.4°C 35% 0.7 mph N1.1 kmh N 2.2 mph3.5 kmh 29.89 in1012.2 mb 0.00 in0.0 mm 0.00 in0.0 mm 0.00 in0.0 mm
07:15 AM 67.5°F19.7°C 39.6°F4.2°C 36% 1.6 mph WSW2.6 kmh WSW 2.2 mph3.5 kmh 29.89 in1012.2 mb 0.00 in0.0 mm 0.00 in0.0 mm 0.00 in0.0 mm
07:30 AM 68.7°F20.4°C 40.7°F4.8°C 36% Calm Calm 1.6 mph2.6 kmh 29.89 in1012.2 mb 0.00 in0.0 mm 0.00 in0.0 mm 0.00 in0.0 mm
07:45 AM 70.7°F21.5°C 42.5°F5.8°C 36% 0.7 mph SSE1.1 kmh SSE 1.6 mph2.6 kmh 29.90 in1012.5 mb 0.00 in0.0 mm 0.00 in0.0 mm 0.00 in0.0 mm
08:00 AM 72.1°F22.3°C 41.5°F5.3°C 33% 1.6 mph SE2.6 kmh SE 2.2 mph3.5 kmh 29.90 in1012.5 mb 0.00 in0.0 mm 0.00 in0.0 mm 0.00 in0.0 mm
08:15 AM 73.8°F23.2°C 43.7°F6.5°C 34% 3.1 mph SE5.0 kmh SE 3.8 mph6.1 kmh 29.90 in1012.5 mb 0.00 in0.0 mm 0.00 in0.0 mm 0.00 in0.0 mm
08:30 AM 74.5°F23.6°C 48.6°F9.2°C 40% 1.6 mph SE2.6 kmh SE 3.1 mph5.0 kmh 29.91 in1012.9 mb 0.00 in0.0 mm 0.00 in0.0 mm 0.00 in0.0 mm
08:45 AM 75.2°F24.0°C 51.2°F10.7°C 43% 1.6 mph SE2.6 kmh SE 3.8 mph6.1 kmh 29.90 in1012.5 mb 0.00 in0.0 mm 0.00 in0.0 mm 0.00 in0.0 mm
09:00 AM 75.6°F24.2°C 56.2°F13.4°C 51% 3.1 mph SE5.0 kmh SE 4.5 mph7.2 kmh 29.91 in1012.9 mb 0.00 in0.0 mm 0.00 in0.0 mm 0.00 in0.0 mm
09:15 AM 76.5°F24.7°C 57.0°F13.9°C 51% 3.8 mph SE6.1 kmh SE 6.0 mph9.7 kmh 29.91 in1012.9 mb 0.00 in0.0 mm 0.00 in0.0 mm 0.00 in0.0 mm
09:30 AM 76.6°F24.8°C 58.3°F14.6°C 53% 5.4 mph SE8.7 kmh SE 6.9 mph11.1 kmh 29.91 in1012.9 mb 0.00 in0.0 mm 0.00 in0.0 mm 0.00 in0.0 mm
09:45 AM 77.7°F25.4°C 59.3°F15.2°C 53% 4.5 mph SE7.2 kmh SE 5.4 mph8.7 kmh 29.91 in1012.9 mb 0.00 in0.0 mm 0.00 in0.0 mm 0.00 in0.0 mm
10:00 AM 78.6°F25.9°C 60.1°F15.6°C 53% 2.2 mph SE3.5 kmh SE 5.4 mph8.7 kmh 29.91 in1012.9 mb 0.00 in0.0 mm 0.00 in0.0 mm 0.00 in0.0 mm
10:15 AM 79.7°F26.5°C 59.5°F15.3°C 50% 3.1 mph ESE5.0 kmh ESE 6.0 mph9.7 kmh 29.91 in1012.9 mb 0.00 in0.0 mm 0.00 in0.0 mm 0.00 in0.0 mm
10:30 AM 81.0°F27.2°C 55.8°F13.2°C 42% 5.4 mph SE8.7 kmh SE 7.6 mph12.2 kmh 29.91 in1012.9 mb 0.00 in0.0 mm 0.00 in0.0 mm 0.00 in0.0 mm
10:45 AM 82.4°F28.0°C 56.4°F13.6°C 41% 6.0 mph SE9.7 kmh SE 7.6 mph12.2 kmh 29.91 in1012.9 mb 0.00 in0.0 mm 0.00 in0.0 mm 0.00 in0.0 mm
11:00 AM 83.3°F28.5°C 57.2°F14.0°C 41% 2.2 mph S3.5 kmh S 8.3 mph13.4 kmh 29.91 in1012.9 mb 0.00 in0.0 mm 0.00 in0.0 mm 0.00 in0.0 mm
11:15 AM 84.7°F29.3°C 57.8°F14.3°C 40% 4.5 mph ESE7.2 kmh ESE 7.6 mph12.2 kmh 29.91 in1012.9 mb 0.00 in0.0 mm 0.00 in0.0 mm 0.00 in0.0 mm
11:30 AM 85.3°F29.6°C 56.8°F13.8°C 38% 5.4 mph SSE8.7 kmh SSE 9.8 mph15.8 kmh 29.91 in1012.9 mb 0.00 in0.0 mm 0.00 in0.0 mm 0.00 in0.0 mm
11:45 AM 86.9°F30.5°C 53.5°F11.9°C 32% 5.4 mph SE8.7 kmh SE 9.2 mph14.8 kmh 29.90 in1012.5 mb 0.00 in0.0 mm 0.00 in0.0 mm 0.00 in0.0 mm
12:00 PM 87.8°F31.0°C 51.6°F10.9°C 29% 3.1 mph ESE5.0 kmh ESE 8.3 mph13.4 kmh 29.90 in1012.5 mb 0.00 in0.0 mm 0.00 in0.0 mm 0.00 in0.0 mm
12:15 PM 89.1°F31.7°C 45.3°F7.4°C 22% 4.5 mph SE7.2 kmh SE 8.3 mph13.4 kmh 29.90 in1012.5 mb 0.00 in0.0 mm 0.00 in0.0 mm 0.00 in0.0 mm
12:30 PM 89.2°F31.8°C 51.9°F11.1°C 28% 6.9 mph SE11.1 kmh SE 11.4 mph18.3 kmh 29.89 in1012.2 mb 0.00 in0.0 mm 0.00 in0.0 mm 0.00 in0.0 mm
12:45 PM 90.0°F32.2°C 51.6°F10.9°C 27% 6.0 mph SE9.7 kmh SE 11.4 mph18.3 kmh 29.89 in1012.2 mb 0.00 in0.0 mm 0.00 in0.0 mm 0.00 in0.0 mm
01:00 PM 89.8°F32.1°C 54.3°F12.4°C 30% 6.0 mph SE9.7 kmh SE 11.4 mph18.3 kmh 29.89 in1012.2 mb 0.00 in0.0 mm 0.00 in0.0 mm 0.00 in0.0 mm
01:15 PM 89.6°F32.0°C 55.9°F13.3°C 32% 6.0 mph E9.7 kmh E 12.1 mph19.5 kmh 29.89 in1012.2 mb 0.00 in0.0 mm 0.00 in0.0 mm 0.00 in0.0 mm
01:30 PM 89.6°F32.0°C 56.7°F13.7°C 33% 9.8 mph SE15.8 kmh SE 14.5 mph23.3 kmh 29.89 in1012.2 mb 0.00 in0.0 mm 0.00 in0.0 mm 0.00 in0.0 mm
01:45 PM 90.0°F32.2°C 55.3°F12.9°C 31% 7.6 mph SE12.2 kmh SE 13.6 mph21.9 kmh 29.88 in1011.9 mb 0.00 in0.0 mm 0.00 in0.0 mm 0.00 in0.0 mm
02:00 PM 89.2°F31.8°C 54.7°F12.6°C 31% 9.2 mph ESE14.8 kmh ESE 12.1 mph19.5 kmh 29.89 in1012.2 mb 0.00 in0.0 mm 0.00 in0.0 mm 0.00 in0.0 mm
02:15 PM 90.3°F32.4°C 54.7°F12.6°C 30% 5.4 mph ESE8.7 kmh ESE 14.5 mph23.3 kmh 29.88 in1011.9 mb 0.00 in0.0 mm 0.00 in0.0 mm 0.00 in0.0 mm
02:30 PM 90.1°F32.3°C 54.6°F12.6°C 30% 6.0 mph ESE9.7 kmh ESE 13.0 mph20.9 kmh 29.88 in1011.9 mb 0.00 in0.0 mm 0.00 in0.0 mm 0.00 in0.0 mm
02:45 PM 90.5°F32.5°C 55.8°F13.2°C 31% 6.9 mph SE11.1 kmh SE 11.4 mph18.3 kmh 29.88 in1011.9 mb 0.00 in0.0 mm 0.00 in0.0 mm 0.00 in0.0 mm
03:00 PM 90.1°F32.3°C 55.5°F13.1°C 31% 7.6 mph ESE12.2 kmh ESE 12.1 mph19.5 kmh 29.88 in1011.9 mb 0.00 in0.0 mm 0.00 in0.0 mm 0.00 in0.0 mm
03:15 PM 90.3°F32.4°C 55.6°F13.1°C 31% 6.0 mph ESE9.7 kmh ESE 14.5 mph23.3 kmh 29.87 in1011.5 mb 0.00 in0.0 mm 0.00 in0.0 mm 0.00 in0.0 mm
03:30 PM 90.0°F32.2°C 55.3°F12.9°C 31% 8.3 mph SE13.4 kmh SE 10.7 mph17.2 kmh 29.87 in1011.5 mb 0.00 in0.0 mm 0.00 in0.0 mm 0.00 in0.0 mm
03:45 PM 90.7°F32.6°C 56.0°F13.3°C 31% 5.4 mph ESE8.7 kmh ESE 9.2 mph14.8 kmh 29.87 in1011.5 mb 0.00 in0.0 mm 0.00 in0.0 mm 0.00 in0.0 mm
04:00 PM 90.1°F32.3°C 55.5°F13.1°C 31% 6.9 mph SE11.1 kmh SE 13.0 mph20.9 kmh 29.87 in1011.5 mb 0.00 in0.0 mm 0.00 in0.0 mm 0.00 in0.0 mm
04:15 PM 90.3°F32.4°C 55.6°F13.1°C 31% 2.2 mph SE3.5 kmh SE 10.7 mph17.2 kmh 29.87 in1011.5 mb 0.00 in0.0 mm 0.00 in0.0 mm 0.00 in0.0 mm
04:30 PM 90.5°F32.5°C 55.8°F13.2°C 31% 6.0 mph SE9.7 kmh SE 11.4 mph18.3 kmh 29.87 in1011.5 mb 0.00 in0.0 mm 0.00 in0.0 mm 0.00 in0.0 mm
04:45 PM 90.3°F32.4°C 54.7°F12.6°C 30% 8.3 mph ESE13.4 kmh ESE 12.1 mph19.5 kmh 29.86 in1011.2 mb 0.00 in0.0 mm 0.00 in0.0 mm 0.00 in0.0 mm
05:00 PM 90.0°F32.2°C 52.5°F11.4°C 28% 6.0 mph ESE9.7 kmh ESE 13.0 mph20.9 kmh 29.87 in1011.5 mb 0.00 in0.0 mm 0.00 in0.0 mm 0.00 in0.0 mm
05:15 PM 90.0°F32.2°C 50.5°F10.3°C 26% 7.6 mph ESE12.2 kmh ESE 9.8 mph15.8 kmh 29.87 in1011.5 mb 0.00 in0.0 mm 0.00 in0.0 mm 0.00 in0.0 mm
05:30 PM 90.1°F32.3°C 47.4°F8.6°C 23% 6.9 mph ESE11.1 kmh ESE 10.7 mph17.2 kmh 29.86 in1011.2 mb 0.00 in0.0 mm 0.00 in0.0 mm 0.00 in0.0 mm
05:45 PM 89.6°F32.0°C 50.2°F10.1°C 26% 3.1 mph ESE5.0 kmh ESE 11.4 mph18.3 kmh 29.86 in1011.2 mb 0.00 in0.0 mm 0.00 in0.0 mm 0.00 in0.0 mm
06:00 PM 89.6°F32.0°C 50.2°F10.1°C 26% 6.0 mph E9.7 kmh E 9.2 mph14.8 kmh 29.86 in1011.2 mb 0.00 in0.0 mm 0.00 in0.0 mm 0.00 in0.0 mm
06:15 PM 89.1°F31.7°C 53.6°F12.0°C 30% 6.9 mph SE11.1 kmh SE 10.7 mph17.2 kmh 29.86 in1011.2 mb 0.00 in0.0 mm 0.00 in0.0 mm 0.00 in0.0 mm
06:30 PM 88.2°F31.2°C 53.8°F12.1°C 31% 4.5 mph ESE7.2 kmh ESE 9.8 mph15.8 kmh 29.86 in1011.2 mb 0.00 in0.0 mm 0.00 in0.0 mm 0.00 in0.0 mm
06:45 PM 87.1°F30.6°C 53.7°F12.1°C 32% 6.0 mph ESE9.7 kmh ESE 8.3 mph13.4 kmh 29.86 in1011.2 mb 0.00 in0.0 mm 0.00 in0.0 mm 0.00 in0.0 mm
07:00 PM 86.4°F30.2°C 54.7°F12.6°C 34% 3.1 mph SE5.0 kmh SE 8.3 mph13.4 kmh 29.87 in1011.5 mb 0.00 in0.0 mm 0.00 in0.0 mm 0.00 in0.0 mm
07:15 PM 85.6°F29.8°C 54.9°F12.7°C 35% 3.8 mph ESE6.1 kmh ESE 6.9 mph11.1 kmh 29.87 in1011.5 mb 0.00 in0.0 mm 0.00 in0.0 mm 0.00 in0.0 mm
07:30 PM 85.1°F29.5°C 54.4°F12.4°C 35% 2.2 mph ESE3.5 kmh ESE 3.8 mph6.1 kmh 29.87 in1011.5 mb 0.00 in0.0 mm 0.00 in0.0 mm 0.00 in0.0 mm
07:45 PM 84.6°F29.2°C 53.9°F12.2°C 35% 1.6 mph E2.6 kmh E 4.5 mph7.2 kmh 29.86 in1011.2 mb 0.00 in0.0 mm 0.00 in0.0 mm 0.00 in0.0 mm
08:00 PM 84.0°F28.9°C 52.7°F11.5°C 34% 2.2 mph ESE3.5 kmh ESE 3.1 mph5.0 kmh 29.86 in1011.2 mb 0.00 in0.0 mm 0.00 in0.0 mm 0.00 in0.0 mm
08:15 PM 83.5°F28.6°C 52.2°F11.2°C 34% 0.7 mph ESE1.1 kmh ESE 2.2 mph3.5 kmh 29.87 in1011.5 mb 0.00 in0.0 mm 0.00 in0.0 mm 0.00 in0.0 mm
08:30 PM 82.4°F28.0°C 55.0°F12.8°C 39% 2.2 mph E3.5 kmh E 3.1 mph5.0 kmh 29.87 in1011.5 mb 0.00 in0.0 mm 0.00 in0.0 mm 0.00 in0.0 mm
08:45 PM 81.5°F27.5°C 54.9°F12.7°C 40% 1.6 mph E2.6 kmh E 2.2 mph3.5 kmh 29.87 in1011.5 mb 0.00 in0.0 mm 0.00 in0.0 mm 0.00 in0.0 mm
09:00 PM 80.6°F27.0°C 54.1°F12.3°C 40% 0.7 mph NE1.1 kmh NE 1.6 mph2.6 kmh 29.88 in1011.9 mb 0.00 in0.0 mm 0.00 in0.0 mm 0.00 in0.0 mm
09:15 PM 79.5°F26.4°C 55.1°F12.8°C 43% 0.7 mph NE1.1 kmh NE 1.6 mph2.6 kmh 29.89 in1012.2 mb 0.00 in0.0 mm 0.00 in0.0 mm 0.00 in0.0 mm
09:30 PM 78.8°F26.0°C 54.5°F12.5°C 43% 1.6 mph NE2.6 kmh NE 3.1 mph5.0 kmh 29.89 in1012.2 mb 0.00 in0.0 mm 0.00 in0.0 mm 0.00 in0.0 mm
09:45 PM 78.3°F25.7°C 52.7°F11.5°C 41% Calm Calm 2.2 mph3.5 kmh 29.89 in1012.2 mb 0.00 in0.0 mm 0.00 in0.0 mm 0.00 in0.0 mm
10:00 PM 77.7°F25.4°C 54.1°F12.3°C 44% Calm Calm 1.6 mph2.6 kmh 29.89 in1012.2 mb 0.00 in0.0 mm 0.00 in0.0 mm 0.00 in0.0 mm
10:15 PM 77.0°F25.0°C 54.1°F12.3°C 45% Calm Calm 1.6 mph2.6 kmh 29.89 in1012.2 mb 0.00 in0.0 mm 0.00 in0.0 mm 0.00 in0.0 mm
10:30 PM 76.3°F24.6°C 53.4°F11.9°C 45% 1.6 mph WSW2.6 kmh WSW 3.1 mph5.0 kmh 29.90 in1012.5 mb 0.00 in0.0 mm 0.00 in0.0 mm 0.00 in0.0 mm
10:45 PM 75.6°F24.2°C 52.8°F11.6°C 45% 1.6 mph WNW2.6 kmh WNW 2.2 mph3.5 kmh 29.90 in1012.5 mb 0.00 in0.0 mm 0.00 in0.0 mm 0.00 in0.0 mm
11:00 PM 75.2°F24.0°C 52.4°F11.3°C 45% 0.7 mph NNW1.1 kmh NNW 0.7 mph1.1 kmh 29.90 in1012.5 mb 0.00 in0.0 mm 0.00 in0.0 mm 0.00 in0.0 mm
11:15 PM 74.7°F23.7°C 51.3°F10.7°C 44% Calm Calm 1.6 mph2.6 kmh 29.91 in1012.9 mb 0.00 in0.0 mm 0.00 in0.0 mm 0.00 in0.0 mm
11:30 PM 74.1°F23.4°C 51.5°F10.8°C 45% 0.7 mph W1.1 kmh W 3.1 mph5.0 kmh 29.91 in1012.9 mb 0.00 in0.0 mm 0.00 in0.0 mm 0.00 in0.0 mm
11:45 PM 73.8°F23.2°C 51.1°F10.6°C 45% 0.7 mph W1.1 kmh W 2.2 mph3.5 kmh 29.91 in1012.9 mb 0.00 in0.0 mm 0.00 in0.0 mm 0.00 in0.0 mm